Terminal Aerodrome Forecast
Issued by NWS

Home | Current Version | Previous Version | Text Only | Print | Product List | Glossary On
Versions: 1 2 3 4 5 6 7 8 9 10 11 12 13
000
FTUS45 KREV 181757
TAFCXP
TAF
KCXP 181757Z 1818/1918 20012G24KT P6SM BKN060 BKN140
     FM182100 22020G38KT P6SM SCT070 BKN150 WS020/25040KT
     FM190300 23015G29KT P6SM -RA FEW030 BKN045
     FM190700 24015G25KT 6SM RA FEW025 OVC040
     FM191200 25010G18KT P6SM -SHRASN SCT025 BKN035
     FM191500 27010KT P6SM VCSH FEW020 BKN040=

USA.gov is the U.S. government's official web portal to all federal, state and local government web resources and services.